createdAt,value
2019-02-24T00:00:32.833Z,64.16
2019-02-24T00:03:01.722Z,66.01
2019-02-24T00:05:32.019Z,65.91
2019-02-24T00:08:01.057Z,66.80
2019-02-24T00:10:29.935Z,66.21
2019-02-24T00:12:59.387Z,66.89
2019-02-24T00:15:28.175Z,65.77
2019-02-24T00:17:57.107Z,65.62
2019-02-24T00:20:26.274Z,65.98
2019-02-24T00:22:56.273Z,65.82
2019-02-24T00:25:25.459Z,66.10
2019-02-24T00:27:54.281Z,66.86
2019-02-24T00:30:23.687Z,67.42
2019-02-24T00:32:52.681Z,68.01
2019-02-24T00:35:21.603Z,68.40
2019-02-24T00:37:51.665Z,68.42
2019-02-24T00:40:20.560Z,68.90
2019-02-24T00:42:49.386Z,68.95
2019-02-24T00:45:19.229Z,70.36
2019-02-24T00:47:48.110Z,69.78
2019-02-24T00:50:16.986Z,69.82
2019-02-24T00:52:46.380Z,70.84
2019-02-24T00:55:15.197Z,70.58
2019-02-24T00:57:44.103Z,70.54
2019-02-24T01:00:13.144Z,70.19
2019-02-24T01:02:42.047Z,70.01
2019-02-24T01:05:11.074Z,70.46
2019-02-24T01:15:39.413Z,71.55
2019-02-24T01:18:08.357Z,71.50
2019-02-24T01:20:37.201Z,72.59
2019-02-24T01:23:06.466Z,72.12
2019-02-24T01:25:35.567Z,72.32
2019-02-24T01:28:04.789Z,73.50
2019-02-24T01:30:33.667Z,73.37
2019-02-24T01:33:02.471Z,72.89
2019-02-24T01:35:31.477Z,73.17
2019-02-24T01:38:01.760Z,73.37
2019-02-24T01:40:30.669Z,72.51
2019-02-24T01:42:59.485Z,71.97
2019-02-24T01:45:28.368Z,72.28
2019-02-24T01:47:57.729Z,72.53
2019-02-24T01:50:26.695Z,72.81
2019-02-24T01:52:55.536Z,73.53
2019-02-24T01:55:24.448Z,73.40
2019-02-24T01:57:53.278Z,74.57
2019-02-24T02:00:22.122Z,75.81
2019-02-24T02:02:52.192Z,74.84
2019-02-24T02:05:22.442Z,75.34
2019-02-24T02:07:51.265Z,75.56
2019-02-24T02:10:20.182Z,74.71
2019-02-24T02:12:49.137Z,74.83
2019-02-24T02:15:18.926Z,75.71
2019-02-24T02:17:47.696Z,75.57
2019-02-24T02:20:16.964Z,75.09
2019-02-24T02:22:46.302Z,74.94
2019-02-24T02:25:15.209Z,75.65
2019-02-24T02:27:44.026Z,76.03
2019-02-24T02:30:13.507Z,76.23
2019-02-24T02:32:44.892Z,76.40
2019-02-24T02:35:13.745Z,75.66
2019-02-24T02:37:42.585Z,75.37
2019-02-24T02:40:11.485Z,74.38
2019-02-24T02:42:40.968Z,75.66
2019-02-24T02:45:09.960Z,75.37
2019-02-24T02:47:39.226Z,75.28
2019-02-24T02:50:09.828Z,75.40
2019-02-24T02:52:39.404Z,75.42
2019-02-24T02:55:08.404Z,75.55
2019-02-24T02:57:37.705Z,75.09
2019-02-24T03:00:13.980Z,74.45
2019-02-24T03:02:42.876Z,75.41
2019-02-24T03:05:13.121Z,76.96
2019-02-24T03:07:46.268Z,76.03
2019-02-24T03:10:15.206Z,75.75
2019-02-24T03:12:44.385Z,76.07
2019-02-24T03:15:13.263Z,75.36
2019-02-24T03:17:42.548Z,77.58
2019-02-24T03:20:12.767Z,76.43
2019-02-24T03:22:41.842Z,77.23
2019-02-24T03:25:11.081Z,77.55
2019-02-24T03:30:30.722Z,78.62
2019-02-24T03:32:59.802Z,78.69
2019-02-24T03:35:29.535Z,78.27
2019-02-24T03:37:59.082Z,78.13
2019-02-24T03:40:29.058Z,78.48
2019-02-24T03:42:57.853Z,78.47
2019-02-24T03:45:26.766Z,78.32
2019-02-24T03:47:55.770Z,77.85
2019-02-24T03:50:25.200Z,78.04
2019-02-24T03:52:55.895Z,77.90
2019-02-24T03:55:25.493Z,79.96
2019-02-24T03:57:54.484Z,78.01
2019-02-24T04:00:24.077Z,77.81
2019-02-24T04:02:55.551Z,78.35
2019-02-24T04:05:24.534Z,77.96
2019-02-24T04:07:53.455Z,78.64
2019-02-24T04:10:23.608Z,78.59
2019-02-24T04:12:53.305Z,79.07
2019-02-24T04:15:23.324Z,78.63
2019-02-24T04:17:52.466Z,78.53
2019-02-24T04:20:21.767Z,79.51
2019-02-24T04:22:51.761Z,79.91
2019-02-24T04:25:20.813Z,79.41
2019-02-24T04:27:49.617Z,78.99
2019-02-24T04:30:18.879Z,78.74
2019-02-24T04:32:48.756Z,78.53
2019-02-24T04:35:18.209Z,78.92
2019-02-24T04:37:47.730Z,78.42
2019-02-24T04:40:17.958Z,78.05
2019-02-24T04:42:47.519Z,78.38
2019-02-24T04:45:16.882Z,79.09
2019-02-24T04:47:46.488Z,78.69
2019-02-24T04:50:15.687Z,78.37
2019-02-24T04:52:44.506Z,78.17
2019-02-24T04:55:13.775Z,79.21
2019-02-24T04:57:43.842Z,78.47
2019-02-24T05:00:13.373Z,80.28
2019-02-24T05:02:42.788Z,79.29
2019-02-24T05:05:11.614Z,79.88
2019-02-24T05:07:41.312Z,80.30
2019-02-24T05:10:12.362Z,80.37
2019-02-24T05:12:41.590Z,80.55
2019-02-24T05:15:11.969Z,80.72
2019-02-24T05:17:40.939Z,80.74
2019-02-24T05:20:10.437Z,80.47
2019-02-24T05:22:40.169Z,80.65
2019-02-24T05:25:10.400Z,79.42
2019-02-24T05:27:40.064Z,79.33
2019-02-24T05:30:09.695Z,79.90
2019-02-24T05:32:38.677Z,79.75
2019-02-24T05:35:07.780Z,80.37
2019-02-24T05:37:37.902Z,80.30
2019-02-24T05:40:07.010Z,80.81
2019-02-24T05:42:37.089Z,81.40
2019-02-24T05:45:06.460Z,80.90
2019-02-24T05:47:35.828Z,80.62
2019-02-24T05:50:07.659Z,79.97
2019-02-24T05:52:36.999Z,80.41
2019-02-24T05:55:06.022Z,80.39
2019-02-24T05:57:35.246Z,79.51
2019-02-24T06:00:04.183Z,79.06
2019-02-24T06:02:33.415Z,80.12
2019-02-24T06:05:02.601Z,80.37
2019-02-24T06:07:33.245Z,80.47
2019-02-24T06:10:03.088Z,80.28
2019-02-24T06:12:32.511Z,80.96
2019-02-24T06:15:01.556Z,81.34
2019-02-24T06:17:31.942Z,81.01
2019-02-24T06:20:01.202Z,80.99
2019-02-24T06:22:30.618Z,81.05
2019-02-24T06:24:59.604Z,81.31
2019-02-24T06:27:28.775Z,81.16
2019-02-24T06:30:04.680Z,80.98
2019-02-24T06:32:28.882Z,80.84
2019-02-24T06:34:57.721Z,80.72
2019-02-24T06:37:26.851Z,80.74
2019-02-24T06:39:57.442Z,80.42
2019-02-24T06:42:26.801Z,80.56
2019-02-24T06:44:55.943Z,80.65
2019-02-24T06:47:26.191Z,80.66
2019-02-24T06:49:55.545Z,80.70
2019-02-24T06:52:25.564Z,80.81
2019-02-24T06:54:55.447Z,81.00
2019-02-24T06:57:24.492Z,80.59
2019-02-24T06:59:54.018Z,80.28
2019-02-24T07:02:22.842Z,80.07
2019-02-24T07:04:52.218Z,79.99
2019-02-24T07:07:21.063Z,79.85
2019-02-24T07:09:50.136Z,79.60
2019-02-24T07:12:20.726Z,79.43
2019-02-24T07:14:50.835Z,79.24
2019-02-24T07:17:19.998Z,79.54
2019-02-24T07:19:49.233Z,80.13
2019-02-24T07:22:18.094Z,79.45
2019-02-24T07:24:47.084Z,78.89
2019-02-24T07:27:16.268Z,78.60
2019-02-24T07:29:45.269Z,78.31
2019-02-24T07:32:14.139Z,78.40
2019-02-24T07:34:43.254Z,78.56
2019-02-24T07:37:13.211Z,78.64
2019-02-24T07:39:42.971Z,79.04
2019-02-24T07:42:12.295Z,77.44
2019-02-24T07:44:41.197Z,77.37
2019-02-24T07:47:10.505Z,76.36
2019-02-24T07:49:39.787Z,76.43
2019-02-24T07:52:08.680Z,75.83
2019-02-24T07:54:38.021Z,74.95
2019-02-24T07:57:06.906Z,74.76
2019-02-24T07:59:35.717Z,73.99
2019-02-24T08:02:05.629Z,73.79
2019-02-24T08:04:34.469Z,72.69
2019-02-24T08:07:03.673Z,72.84
2019-02-24T08:09:32.585Z,71.24
2019-02-24T08:12:02.270Z,71.98
2019-02-24T08:14:32.973Z,70.21
2019-02-24T08:17:01.922Z,69.61
2019-02-24T08:19:30.915Z,70.24
2019-02-24T08:22:01.357Z,68.67
2019-02-24T08:24:31.137Z,67.46
2019-02-24T08:27:00.063Z,61.78
2019-02-24T08:29:32.657Z,63.98
2019-02-24T08:32:03.717Z,64.60
2019-02-24T08:34:32.830Z,63.58
2019-02-24T08:37:02.198Z,64.38
2019-02-24T08:39:31.020Z,63.89
2019-02-24T08:42:00.224Z,64.03
2019-02-24T08:44:29.161Z,63.84
2019-02-24T08:49:46.126Z,63.65
2019-02-24T08:52:30.137Z,62.62
2019-02-24T08:54:59.364Z,63.79
2019-02-24T08:57:28.346Z,62.22
2019-02-24T08:59:57.400Z,62.29
2019-02-24T09:02:26.310Z,60.84
2019-02-24T09:04:55.176Z,59.92
2019-02-24T09:07:24.639Z,60.69
2019-02-24T09:09:56.198Z,59.63
2019-02-24T09:12:25.459Z,58.87
2019-02-24T09:15:01.394Z,59.75
2019-02-24T09:17:31.857Z,57.29
2019-02-24T09:20:04.094Z,56.83
2019-02-24T09:22:33.027Z,55.92
2019-02-24T09:25:03.328Z,56.32
2019-02-24T09:27:33.493Z,56.55
2019-02-24T09:30:02.805Z,55.39
2019-02-24T09:32:32.289Z,54.46
2019-02-24T09:35:01.380Z,54.30
2019-02-24T09:37:30.382Z,54.49
2019-02-24T09:39:59.618Z,54.42
2019-02-24T09:42:29.371Z,52.23
2019-02-24T09:44:58.991Z,52.63
2019-02-24T09:47:28.246Z,52.66
2019-02-24T09:49:57.219Z,52.27
2019-02-24T09:52:26.088Z,52.24
2019-02-24T09:54:55.493Z,51.99
2019-02-24T09:57:24.618Z,50.89
2019-02-24T09:59:54.216Z,50.92
2019-02-24T10:02:23.068Z,51.11
2019-02-24T10:04:52.166Z,50.26
2019-02-24T10:07:22.224Z,49.63
2019-02-24T10:09:51.223Z,49.97
2019-02-24T10:12:20.509Z,47.80
2019-02-24T10:14:49.977Z,50.33
2019-02-24T10:17:19.179Z,47.89
2019-02-24T10:19:49.320Z,48.72
2019-02-24T10:22:18.191Z,47.85
2019-02-24T10:24:47.061Z,48.25
2019-02-24T10:27:16.525Z,47.19
2019-02-24T10:29:45.423Z,48.81
2019-02-24T10:32:15.857Z,46.98
2019-02-24T10:34:45.355Z,47.93
2019-02-24T10:37:33.454Z,46.86
2019-02-24T10:40:02.437Z,46.64
2019-02-24T10:42:32.737Z,46.44
2019-02-24T10:45:01.558Z,46.37
2019-02-24T10:47:30.652Z,45.60
2019-02-24T10:49:59.586Z,45.63
2019-02-24T10:53:06.192Z,46.20
2019-02-24T10:55:14.838Z,44.21
2019-02-24T10:57:43.722Z,45.44
2019-02-24T11:00:14.728Z,44.83
2019-02-24T11:02:43.578Z,43.62
2019-02-24T11:05:12.730Z,43.20
2019-02-24T11:07:41.561Z,43.36
2019-02-24T11:10:12.083Z,43.47
2019-02-24T11:12:41.212Z,43.39
2019-02-24T11:15:10.148Z,42.75
2019-02-24T11:17:39.662Z,40.98
2019-02-24T11:20:09.345Z,42.44
2019-02-24T11:22:38.201Z,40.73
2019-02-24T11:25:08.420Z,41.30
2019-02-24T11:27:39.056Z,40.40
2019-02-24T11:30:08.693Z,41.14
2019-02-24T11:32:39.310Z,40.95
2019-02-24T11:35:08.651Z,40.13
2019-02-24T11:37:38.873Z,40.00
2019-02-24T11:40:10.060Z,40.30
2019-02-24T11:42:39.346Z,40.40
2019-02-24T11:45:08.270Z,39.44
2019-02-24T11:47:37.385Z,42.11
2019-02-24T11:50:07.264Z,39.84
2019-02-24T11:52:36.268Z,39.53
2019-02-24T11:55:14.179Z,39.58
2019-02-24T11:58:01.433Z,39.05
2019-02-24T12:00:30.393Z,38.57
2019-02-24T12:03:03.792Z,38.91
2019-02-24T12:05:34.169Z,38.41
2019-02-24T12:08:06.285Z,38.52
2019-02-24T12:10:35.225Z,38.60
2019-02-24T12:13:05.372Z,38.82
2019-02-24T12:15:36.053Z,38.95
2019-02-24T12:18:11.021Z,37.77
2019-02-24T12:20:40.945Z,36.46
2019-02-24T12:26:38.754Z,35.86
2019-02-24T12:29:16.869Z,36.88
2019-02-24T12:41:04.489Z,36.04
2019-02-24T12:43:36.382Z,36.18
2019-02-24T12:46:07.309Z,36.61
2019-02-24T12:48:37.371Z,36.93
2019-02-24T12:51:06.456Z,36.33
2019-02-24T12:53:40.918Z,35.55
2019-02-24T12:56:09.862Z,35.45
2019-02-24T12:58:40.738Z,37.83
2019-02-24T13:01:30.764Z,36.26
2019-02-24T13:03:59.986Z,35.27
2019-02-24T13:06:30.266Z,35.74
2019-02-24T13:08:59.477Z,36.01
2019-02-24T13:11:29.035Z,35.60
2019-02-24T13:13:59.807Z,35.41
2019-02-24T13:16:29.877Z,34.26
2019-02-24T13:18:58.970Z,36.20
2019-02-24T13:21:28.153Z,34.86
2019-02-24T13:24:04.648Z,35.66
2019-02-24T13:26:36.768Z,34.08
2019-02-24T13:29:11.249Z,33.22
2019-02-24T13:31:48.942Z,31.94
2019-02-24T13:34:18.604Z,31.48
2019-02-24T13:36:47.453Z,31.42
2019-02-24T13:39:17.471Z,32.67
2019-02-24T13:41:46.297Z,33.45
2019-02-24T13:44:15.456Z,33.65
2019-02-24T13:46:44.807Z,31.78
2019-02-24T13:49:17.498Z,32.00
2019-02-24T13:51:46.424Z,32.00
2019-02-24T13:54:19.089Z,31.58
2019-02-24T13:56:48.084Z,32.02
2019-02-24T13:59:17.063Z,32.32
2019-02-24T14:01:46.264Z,30.87
2019-02-24T14:04:16.342Z,31.25
2019-02-24T14:06:46.444Z,31.05
2019-02-24T14:09:16.233Z,30.71
2019-02-24T14:11:45.422Z,30.79
2019-02-24T14:14:14.404Z,30.48
2019-02-24T14:16:43.925Z,31.02
2019-02-24T14:19:19.088Z,29.29
2019-02-24T14:21:49.103Z,28.29
2019-02-24T14:24:20.941Z,28.94
2019-02-24T14:30:17.953Z,29.06
2019-02-24T14:35:48.069Z,29.84
2019-02-24T14:38:45.060Z,29.30
2019-02-24T14:41:14.266Z,29.22
2019-02-24T14:43:47.203Z,30.06
2019-02-24T14:46:17.320Z,28.55
2019-02-24T14:48:47.572Z,29.43
2019-02-24T14:51:18.308Z,30.55
2019-02-24T14:53:47.205Z,30.72
2019-02-24T14:56:17.291Z,31.00
2019-02-24T14:58:46.578Z,31.78
2019-02-24T15:01:18.394Z,32.05
2019-02-24T15:03:47.463Z,30.53
2019-02-24T15:06:16.349Z,31.06
2019-02-24T15:08:45.593Z,33.26
2019-02-24T15:11:14.405Z,33.16
2019-02-24T15:13:43.383Z,33.63
2019-02-24T15:16:14.713Z,33.85
2019-02-24T15:18:43.952Z,33.66
2019-02-24T15:21:12.852Z,32.60
2019-02-24T15:23:48.669Z,32.79
2019-02-24T15:26:17.676Z,31.82
2019-02-24T15:28:48.994Z,31.42
2019-02-24T15:31:21.063Z,31.57
2019-02-24T15:33:50.031Z,30.99
2019-02-24T15:36:18.873Z,31.21
2019-02-24T15:38:48.853Z,31.55
2019-02-24T15:41:19.850Z,31.44
2019-02-24T15:43:50.159Z,32.68
2019-02-24T15:46:19.115Z,32.25
2019-02-24T15:48:48.590Z,32.32
2019-02-24T15:51:17.900Z,34.01
2019-02-24T15:53:46.968Z,35.75
2019-02-24T15:56:16.056Z,35.47
2019-02-24T15:58:45.036Z,36.24
2019-02-24T16:01:14.454Z,34.82
2019-02-24T16:03:45.688Z,35.08
2019-02-24T16:06:15.302Z,37.22
2019-02-24T16:08:44.596Z,35.92
2019-02-24T16:11:13.452Z,36.20
2019-02-24T16:13:42.408Z,37.12
2019-02-24T16:16:11.786Z,37.80
2019-02-24T16:18:40.632Z,36.75
2019-02-24T16:21:09.571Z,37.29
2019-02-24T16:23:39.604Z,38.37
2019-02-24T16:26:09.120Z,40.21
2019-02-24T16:28:38.058Z,39.14
2019-02-24T16:31:08.288Z,40.13
2019-02-24T16:33:37.537Z,41.79
2019-02-24T16:36:06.377Z,43.27
2019-02-24T16:38:38.064Z,44.63
2019-02-24T16:41:07.032Z,44.63
2019-02-24T16:43:36.227Z,44.97
2019-02-24T16:46:05.288Z,44.89
2019-02-24T16:48:34.727Z,46.47
2019-02-24T16:51:04.396Z,46.91
2019-02-24T16:53:34.055Z,46.97
2019-02-24T16:56:03.079Z,48.56
2019-02-24T16:58:37.946Z,48.30
2019-02-24T17:01:06.988Z,48.90
2019-02-24T17:03:35.900Z,48.97
2019-02-24T17:06:07.144Z,49.79
2019-02-24T17:08:40.317Z,49.66
2019-02-24T17:11:18.576Z,50.08
2019-02-24T17:13:48.851Z,50.84
2019-02-24T17:16:18.109Z,51.41
2019-02-24T17:18:47.255Z,51.15
2019-02-24T17:21:16.440Z,52.16
2019-02-24T17:23:49.859Z,52.46
2019-02-24T17:26:17.146Z,52.28
2019-02-24T17:28:45.967Z,52.55
2019-02-24T17:31:15.758Z,52.22
2019-02-24T17:33:44.923Z,52.85
2019-02-24T17:36:14.030Z,53.07
2019-02-24T17:38:42.955Z,53.91
2019-02-24T17:41:12.014Z,54.69
2019-02-24T17:43:42.764Z,54.93
2019-02-24T17:46:11.975Z,54.94
2019-02-24T17:48:41.040Z,54.89
2019-02-24T17:51:10.384Z,54.46
2019-02-24T17:53:39.793Z,55.26
2019-02-24T17:56:08.836Z,54.83
2019-02-24T17:58:38.062Z,54.61
2019-02-24T18:01:07.017Z,54.43
2019-02-24T18:03:39.473Z,55.14
2019-02-24T18:06:07.047Z,56.53
2019-02-24T18:08:35.887Z,57.50
2019-02-24T18:11:04.977Z,57.75
2019-02-24T18:13:34.276Z,58.27
2019-02-24T18:16:04.456Z,58.17
2019-02-24T18:18:35.167Z,57.85
2019-02-24T18:21:06.667Z,58.16
2019-02-24T18:23:34.733Z,58.35
2019-02-24T18:26:05.726Z,58.37
2019-02-24T18:28:36.115Z,57.75
2019-02-24T18:31:05.882Z,56.73
2019-02-24T18:33:35.644Z,59.61
2019-02-24T18:36:05.064Z,59.40
2019-02-24T18:38:34.846Z,59.46
2019-02-24T18:41:04.294Z,58.79
2019-02-24T18:43:33.721Z,60.18
2019-02-24T18:46:04.003Z,60.19
2019-02-24T18:48:33.171Z,60.05
2019-02-24T18:51:03.127Z,59.99
2019-02-24T18:53:34.047Z,59.82
2019-02-24T18:56:04.303Z,60.82
2019-02-24T18:58:33.548Z,61.27
2019-02-24T19:01:02.522Z,61.28
2019-02-24T19:03:31.479Z,61.36
2019-02-24T19:06:02.854Z,62.28
2019-02-24T19:08:32.735Z,62.02
2019-02-24T19:11:02.826Z,61.92
2019-02-24T19:13:31.842Z,62.92
2019-02-24T19:16:01.010Z,62.41
2019-02-24T19:18:30.444Z,62.59
2019-02-24T19:20:59.239Z,62.42
2019-02-24T19:23:28.398Z,61.42
2019-02-24T19:25:57.549Z,61.75
2019-02-24T19:28:27.233Z,61.45
2019-02-24T19:30:56.351Z,63.65
2019-02-24T19:33:25.315Z,64.07
2019-02-24T19:35:55.362Z,63.45
2019-02-24T19:38:24.291Z,63.54
2019-02-24T19:40:54.278Z,62.79
2019-02-24T19:43:23.627Z,63.93
2019-02-24T19:45:53.280Z,63.54
2019-02-24T19:48:24.233Z,65.55
2019-02-24T19:50:53.056Z,68.00
2019-02-24T19:53:22.429Z,66.08
2019-02-24T19:55:51.815Z,66.37
2019-02-24T19:58:20.949Z,66.72
2019-02-24T20:00:51.753Z,65.63
2019-02-24T20:03:20.860Z,65.66
2019-02-24T20:05:49.778Z,65.50
2019-02-24T20:08:18.684Z,65.72
2019-02-24T20:10:48.898Z,65.93
2019-02-24T20:13:17.739Z,65.87
2019-02-24T20:15:47.008Z,68.30
2019-02-24T20:18:16.153Z,67.44
2019-02-24T20:20:45.025Z,67.02
2019-02-24T20:23:17.052Z,66.79
2019-02-24T20:25:45.928Z,66.90
2019-02-24T20:28:15.084Z,66.55
2019-02-24T20:30:44.126Z,67.17
2019-02-24T20:33:13.171Z,67.15
2019-02-24T20:35:42.159Z,67.50
2019-02-24T20:38:11.196Z,68.51
2019-02-24T20:40:40.169Z,67.59
2019-02-24T20:43:29.763Z,67.96
2019-02-24T20:45:59.115Z,68.37
2019-02-24T20:48:29.440Z,68.62
2019-02-24T20:50:59.130Z,69.40
2019-02-24T20:53:28.061Z,69.24
2019-02-24T20:55:56.979Z,69.33
2019-02-24T20:58:33.849Z,68.63
2019-02-24T21:01:06.172Z,69.29
2019-02-24T21:03:42.028Z,69.87
2019-02-24T21:06:11.404Z,69.41
2019-02-24T21:08:40.972Z,69.50
2019-02-24T21:11:09.941Z,68.84
2019-02-24T21:13:40.656Z,68.65
2019-02-24T21:16:10.561Z,69.69
2019-02-24T21:18:41.768Z,69.68
2019-02-24T21:21:11.014Z,69.24
2019-02-24T21:23:40.055Z,70.07
2019-02-24T21:26:09.616Z,69.75
2019-02-24T21:28:38.738Z,69.10
2019-02-24T21:31:09.944Z,70.32
2019-02-24T21:33:39.672Z,70.41
2019-02-24T21:36:11.734Z,70.15
2019-02-24T21:38:41.710Z,70.31
2019-02-24T21:41:15.776Z,71.78
2019-02-24T21:43:44.919Z,72.47
2019-02-24T21:46:15.622Z,71.68
2019-02-24T21:49:03.284Z,71.65
2019-02-24T21:51:32.218Z,71.83
2019-02-24T21:54:01.417Z,73.41
2019-02-24T21:56:31.414Z,72.39
2019-02-24T21:59:17.513Z,72.26
2019-02-24T22:01:46.342Z,71.87
2019-02-24T22:04:17.788Z,71.42
2019-02-24T22:06:48.701Z,70.95
2019-02-24T22:09:21.583Z,71.55
2019-02-24T22:11:50.497Z,72.84
2019-02-24T22:14:21.010Z,71.97
2019-02-24T22:16:50.176Z,72.27
2019-02-24T22:19:21.748Z,72.27
2019-02-24T22:21:50.636Z,72.78
2019-02-24T22:24:21.264Z,72.88
2019-02-24T22:26:51.403Z,73.10
2019-02-24T22:29:20.589Z,73.55
2019-02-24T22:31:49.426Z,73.24
2019-02-24T22:34:19.451Z,73.65
2019-02-24T22:36:48.279Z,73.51
2019-02-24T22:39:17.144Z,73.23
2019-02-24T22:41:48.064Z,72.85
2019-02-24T22:44:16.975Z,73.51
2019-02-24T22:46:46.303Z,73.22
2019-02-24T22:49:15.614Z,74.15
2019-02-24T22:51:45.553Z,73.43
2019-02-24T22:54:14.774Z,72.89
2019-02-24T22:56:44.200Z,75.63
2019-02-24T22:59:13.096Z,74.74
2019-02-24T23:01:43.828Z,74.49
2019-02-24T23:04:14.119Z,74.47
2019-02-24T23:06:43.773Z,74.13
2019-02-24T23:09:15.951Z,73.68
2019-02-24T23:11:45.207Z,74.86
2019-02-24T23:14:14.327Z,73.49
2019-02-24T23:16:43.871Z,73.96
2019-02-24T23:19:13.025Z,73.48
2019-02-24T23:21:42.837Z,73.44
2019-02-24T23:24:11.625Z,74.47
2019-02-24T23:26:40.952Z,74.88
2019-02-24T23:29:10.393Z,74.50
2019-02-24T23:31:39.739Z,74.27
2019-02-24T23:34:08.826Z,73.60
2019-02-24T23:36:37.897Z,74.24
2019-02-24T23:39:09.895Z,74.79
2019-02-24T23:41:38.740Z,74.47
2019-02-24T23:44:07.722Z,74.52
2019-02-24T23:46:37.130Z,74.95
2019-02-24T23:49:06.828Z,74.67
2019-02-24T23:51:35.737Z,74.54
2019-02-24T23:54:04.624Z,75.00
2019-02-24T23:56:33.937Z,75.18
2019-02-24T23:59:03.480Z,75.71
